createdAt,value
2022-11-22T00:00:25.443Z,90602.44
2022-11-22T00:02:52.082Z,90599.50
2022-11-22T00:05:18.957Z,90621.38
2022-11-22T00:07:45.716Z,90617.59
2022-11-22T00:10:13.642Z,90614.50
2022-11-22T00:12:40.898Z,90618.81
2022-11-22T00:15:08.794Z,90620.31
2022-11-22T00:17:35.646Z,90611.09
2022-11-22T00:20:02.279Z,90607.75
2022-11-22T00:22:28.949Z,90618.22
2022-11-22T00:24:55.564Z,90632.16
2022-11-22T00:27:22.921Z,90631.31
2022-11-22T00:29:49.751Z,90629.63
2022-11-22T00:32:16.539Z,90598.34
2022-11-22T00:34:43.278Z,90618.91
2022-11-22T00:37:09.987Z,90616.22
2022-11-22T00:39:36.747Z,90622.38
2022-11-22T00:42:03.746Z,90633.44
2022-11-22T00:44:30.343Z,90646.22
2022-11-22T00:46:57.318Z,90627.75
2022-11-22T00:49:23.933Z,90628.78
2022-11-22T00:51:50.734Z,90586.94
2022-11-22T00:54:17.421Z,90616.22
2022-11-22T00:56:44.088Z,90626.66
2022-11-22T00:59:10.704Z,90625.66
2022-11-22T01:01:37.423Z,90627.56
2022-11-22T01:04:04.274Z,90632.16
2022-11-22T01:06:30.998Z,90639.88
2022-11-22T01:08:57.749Z,90626.50
2022-11-22T01:11:24.364Z,90650.16
2022-11-22T01:13:51.182Z,90649.59
2022-11-22T01:16:17.840Z,90649.25
2022-11-22T01:18:45.822Z,90644.38
2022-11-22T01:21:12.412Z,90641.78
2022-11-22T01:23:39.399Z,90646.47
2022-11-22T01:26:09.467Z,90636.78
2022-11-22T01:28:37.699Z,90641.44
2022-11-22T01:31:05.013Z,90640.78
2022-11-22T01:33:31.691Z,90648.09
2022-11-22T01:35:58.662Z,90649.13
2022-11-22T01:38:25.695Z,90658.03
2022-11-22T01:40:53.279Z,90647.16
2022-11-22T01:43:26.054Z,90643.91
2022-11-22T01:46:02.413Z,90654.44
2022-11-22T01:48:38.104Z,90657.50
2022-11-22T01:51:20.910Z,90657.13
2022-11-22T01:53:48.051Z,90658.91
2022-11-22T01:56:17.129Z,90667.94
2022-11-22T01:58:47.750Z,90650.31
2022-11-22T02:01:14.450Z,90664.75
2022-11-22T02:03:45.846Z,90664.56
2022-11-22T02:06:13.748Z,90663.97
2022-11-22T02:09:00.634Z,90663.97
2022-11-22T02:11:33.890Z,90662.19
2022-11-22T02:14:01.230Z,90679.56
2022-11-22T02:16:28.062Z,90678.91
2022-11-22T02:18:54.727Z,90683.16
2022-11-22T02:21:21.389Z,90683.50
2022-11-22T02:24:11.048Z,90675.09
2022-11-22T02:26:37.838Z,90671.56
2022-11-22T02:29:07.860Z,90674.69
2022-11-22T02:31:37.892Z,90648.94
2022-11-22T02:34:04.639Z,90677.94
2022-11-22T02:36:35.422Z,90680.66
2022-11-22T02:39:02.394Z,90686.31
2022-11-22T02:41:29.085Z,90678.69
2022-11-22T02:43:55.904Z,90681.63
2022-11-22T02:46:23.732Z,90691.50
2022-11-22T02:48:50.933Z,90682.94
2022-11-22T02:51:20.148Z,90672.00
2022-11-22T02:53:49.106Z,90689.72
2022-11-22T02:56:16.482Z,90692.28
2022-11-22T02:58:43.680Z,90689.41
2022-11-22T03:01:14.847Z,90693.38
2022-11-22T03:03:41.547Z,90698.16
2022-11-22T03:06:08.254Z,90716.44
2022-11-22T03:08:34.907Z,90726.75
2022-11-22T03:11:01.796Z,90718.44
2022-11-22T03:13:28.437Z,90733.69
2022-11-22T03:15:55.091Z,90733.78
2022-11-22T03:18:22.247Z,90730.56
2022-11-22T03:20:48.913Z,90739.19
2022-11-22T03:23:15.583Z,90735.31
2022-11-22T03:25:42.666Z,90735.50
2022-11-22T03:28:09.285Z,90724.94
2022-11-22T03:30:39.873Z,90715.50
2022-11-22T03:33:06.477Z,90720.44
2022-11-22T03:35:33.175Z,90733.81
2022-11-22T03:37:59.795Z,90731.22
2022-11-22T03:40:26.489Z,90732.16
2022-11-22T03:42:53.072Z,90738.41
2022-11-22T03:45:19.767Z,90747.78
2022-11-22T03:47:46.372Z,90756.84
2022-11-22T03:50:13.143Z,90766.97
2022-11-22T03:52:39.730Z,90755.75
2022-11-22T03:55:06.569Z,90764.38
2022-11-22T03:57:33.228Z,90770.56
2022-11-22T04:00:01.112Z,90759.75
2022-11-22T04:02:27.749Z,90754.72
2022-11-22T04:04:54.374Z,90768.00
2022-11-22T04:07:21.169Z,90763.00
2022-11-22T04:09:47.865Z,90762.88
2022-11-22T04:12:14.540Z,90762.53
2022-11-22T04:14:59.861Z,90763.59
2022-11-22T04:17:41.322Z,90777.19
2022-11-22T04:20:28.630Z,90787.22
2022-11-22T04:23:33.474Z,90777.56
2022-11-22T04:26:00.939Z,90760.91
2022-11-22T04:28:47.130Z,90795.84
2022-11-22T04:31:32.976Z,90800.88
2022-11-22T04:33:59.498Z,90809.22
2022-11-22T04:36:26.102Z,90821.72
2022-11-22T04:38:52.822Z,90823.19
2022-11-22T04:41:19.474Z,90823.44
2022-11-22T04:44:04.791Z,90827.28
2022-11-22T04:46:31.863Z,90838.97
2022-11-22T04:48:58.546Z,90837.06
2022-11-22T04:51:43.805Z,90863.44
2022-11-22T04:54:10.411Z,90866.63
2022-11-22T04:56:37.042Z,90863.56
2022-11-22T04:59:03.733Z,90880.72
2022-11-22T05:01:30.401Z,90882.44
2022-11-22T05:03:57.150Z,90875.72
2022-11-22T05:06:23.808Z,90878.00
2022-11-22T05:08:50.787Z,90874.34
2022-11-22T05:11:18.371Z,90878.63
2022-11-22T05:13:45.159Z,90881.00
2022-11-22T05:16:15.010Z,90894.00
2022-11-22T05:18:42.344Z,90890.44
2022-11-22T05:21:11.602Z,90889.16
2022-11-22T05:23:56.701Z,90898.00
2022-11-22T05:26:34.240Z,90897.75
2022-11-22T05:29:09.955Z,90894.34
2022-11-22T05:31:38.705Z,90890.78
2022-11-22T05:34:05.812Z,90878.13
2022-11-22T05:36:34.279Z,90877.75
2022-11-22T05:39:01.569Z,90873.06
2022-11-22T05:41:28.630Z,90868.78
2022-11-22T05:43:56.771Z,90880.47
2022-11-22T05:46:29.059Z,90885.66
2022-11-22T05:48:57.110Z,90889.28
2022-11-22T05:51:30.536Z,90899.25
2022-11-22T05:54:00.506Z,90904.13
2022-11-22T05:56:27.297Z,90904.19
2022-11-22T05:58:54.505Z,90887.81
2022-11-22T06:01:23.022Z,90902.66
2022-11-22T06:03:50.919Z,90906.53
2022-11-22T06:06:18.322Z,90911.94
2022-11-22T06:08:48.367Z,90920.03
2022-11-22T06:11:21.322Z,90924.88
2022-11-22T06:13:51.023Z,90918.22
2022-11-22T06:16:18.305Z,90919.50
2022-11-22T06:18:45.077Z,90929.50
2022-11-22T06:21:14.833Z,90922.09
2022-11-22T06:23:41.558Z,90916.28
2022-11-22T06:26:10.611Z,90929.59
2022-11-22T06:28:38.965Z,90931.78
2022-11-22T06:31:18.924Z,90921.84
2022-11-22T06:33:46.173Z,90922.25
2022-11-22T06:36:14.343Z,90926.75
2022-11-22T06:38:42.258Z,90938.75
2022-11-22T06:41:14.634Z,90931.09
2022-11-22T06:43:46.968Z,90927.41
2022-11-22T06:46:17.274Z,90938.38
2022-11-22T06:48:44.348Z,90945.13
2022-11-22T06:51:16.667Z,90944.84
2022-11-22T06:53:48.295Z,90950.06
2022-11-22T06:56:21.387Z,90948.00
2022-11-22T06:58:50.123Z,90956.50
2022-11-22T07:01:18.351Z,90963.66
2022-11-22T07:03:45.444Z,90956.78
2022-11-22T07:06:13.863Z,90966.31
2022-11-22T07:08:41.375Z,90975.34
2022-11-22T07:11:14.196Z,90969.38
2022-11-22T07:13:41.353Z,90973.72
2022-11-22T07:16:11.190Z,90970.03
2022-11-22T07:18:38.071Z,90972.69
2022-11-22T07:21:13.797Z,90960.00
2022-11-22T07:23:45.621Z,90965.88
2022-11-22T07:26:13.521Z,90973.75
2022-11-22T07:28:40.176Z,90963.16
2022-11-22T07:31:08.773Z,90961.59
2022-11-22T07:33:35.876Z,90964.66
2022-11-22T07:36:11.170Z,90971.88
2022-11-22T07:38:38.407Z,90969.16
2022-11-22T07:41:06.435Z,90950.88
2022-11-22T07:43:33.457Z,90953.31
2022-11-22T07:46:04.812Z,90947.72
2022-11-22T07:48:31.656Z,90942.75
2022-11-22T07:51:04.742Z,90943.84
2022-11-22T07:53:32.033Z,90929.00
2022-11-22T07:56:02.323Z,90919.16
2022-11-22T07:58:29.023Z,90933.97
2022-11-22T08:00:55.675Z,90932.81
2022-11-22T08:03:27.187Z,90930.78
2022-11-22T08:06:02.627Z,90929.34
2022-11-22T08:08:29.811Z,90922.06
2022-11-22T08:10:56.534Z,90921.53
2022-11-22T08:13:23.326Z,90927.34
2022-11-22T08:15:50.796Z,90931.91
2022-11-22T08:18:19.201Z,90921.34
2022-11-22T08:20:45.865Z,90926.41
2022-11-22T08:23:12.668Z,90919.91
2022-11-22T08:25:39.354Z,90922.09
2022-11-22T08:28:06.097Z,90916.31
2022-11-22T08:30:32.727Z,90916.09
2022-11-22T08:32:59.387Z,90916.25
2022-11-22T08:35:25.984Z,90904.13
2022-11-22T08:37:56.288Z,90889.28
2022-11-22T08:40:23.088Z,90888.19
2022-11-22T08:42:49.831Z,90879.91
2022-11-22T08:45:16.528Z,90881.91
2022-11-22T08:47:43.132Z,90887.22
2022-11-22T08:50:11.297Z,90899.94
2022-11-22T08:52:37.917Z,90877.25
2022-11-22T08:55:04.864Z,90881.78
2022-11-22T08:57:31.515Z,90866.94
2022-11-22T08:59:58.102Z,90878.16
2022-11-22T09:02:24.811Z,90879.38
2022-11-22T09:04:51.448Z,90879.66
2022-11-22T09:10:08.152Z,90881.41
2022-11-22T09:12:34.917Z,90868.56
2022-11-22T09:15:01.538Z,90855.28
2022-11-22T09:17:28.162Z,90854.44
2022-11-22T09:19:54.843Z,90860.59
2022-11-22T09:22:25.366Z,90858.97
2022-11-22T09:24:54.823Z,90866.72
2022-11-22T09:27:21.740Z,90870.38
2022-11-22T09:29:48.520Z,90857.47
2022-11-22T09:32:15.355Z,90851.66
2022-11-22T09:34:42.099Z,90854.34
2022-11-22T09:37:08.769Z,90854.25
2022-11-22T09:39:35.512Z,90851.13
2022-11-22T09:42:28.096Z,90844.19
2022-11-22T09:45:25.381Z,90837.69
2022-11-22T09:48:13.716Z,90836.84
2022-11-22T09:51:03.128Z,90845.00
2022-11-22T09:53:54.690Z,90834.28
2022-11-22T09:56:25.598Z,90840.22
2022-11-22T09:58:57.408Z,90862.47
2022-11-22T10:01:34.329Z,90853.25
2022-11-22T10:04:08.046Z,90843.84
2022-11-22T10:06:42.086Z,90855.72
2022-11-22T10:09:30.728Z,90848.28
2022-11-22T10:12:39.325Z,90841.75
2022-11-22T10:15:08.724Z,90858.94
2022-11-22T10:18:04.773Z,90859.75
2022-11-22T10:20:35.856Z,90849.66
2022-11-22T10:23:03.392Z,90850.66
2022-11-22T10:25:35.991Z,90842.75
2022-11-22T10:28:55.181Z,90840.72
2022-11-22T10:31:32.460Z,90846.34
2022-11-22T10:34:02.034Z,90843.84
2022-11-22T10:36:53.663Z,90844.03
2022-11-22T10:39:42.898Z,90856.44
2022-11-22T10:42:09.516Z,90842.06
2022-11-22T10:45:11.743Z,90845.16
2022-11-22T10:47:50.207Z,90838.25
2022-11-22T10:50:23.944Z,90837.94
2022-11-22T10:53:01.935Z,90835.34
2022-11-22T10:55:55.188Z,90829.50
2022-11-22T10:59:03.387Z,90825.63
2022-11-22T11:01:38.799Z,90828.59
2022-11-22T11:04:07.439Z,90812.16
2022-11-22T11:07:10.912Z,90810.06
2022-11-22T11:12:40.387Z,90824.38
2022-11-22T11:15:14.917Z,90817.22
2022-11-22T11:17:44.296Z,90808.13
2022-11-22T11:20:25.245Z,90816.25
2022-11-22T11:23:13.838Z,90827.56
2022-11-22T11:25:40.874Z,90818.94
2022-11-22T11:28:13.165Z,90815.63
2022-11-22T11:30:46.802Z,90805.53
2022-11-22T11:33:18.002Z,90814.19
2022-11-22T11:35:46.475Z,90822.38
2022-11-22T11:38:38.332Z,90818.25
2022-11-22T11:41:40.241Z,90822.72
2022-11-22T11:44:27.321Z,90824.59
2022-11-22T11:46:54.251Z,90827.97
2022-11-22T11:49:25.982Z,90837.31
2022-11-22T11:52:04.844Z,90841.81
2022-11-22T11:54:43.558Z,90836.13
2022-11-22T11:57:15.717Z,90831.72
2022-11-22T11:59:46.421Z,90823.88
2022-11-22T12:02:25.198Z,90811.50
2022-11-22T12:04:52.039Z,90766.63
2022-11-22T12:07:24.536Z,90738.09
2022-11-22T12:09:53.531Z,90747.19
2022-11-22T12:12:46.692Z,90722.16
2022-11-22T12:15:27.007Z,90735.22
2022-11-22T12:18:01.010Z,90757.72
2022-11-22T12:20:46.364Z,90741.22
2022-11-22T12:23:32.442Z,90729.16
2022-11-22T12:25:59.411Z,90721.47
2022-11-22T12:28:28.894Z,90721.44
2022-11-22T12:31:13.564Z,90728.00
2022-11-22T12:33:44.280Z,90726.16
2022-11-22T12:36:32.881Z,90733.06
2022-11-22T12:39:03.217Z,90752.31
2022-11-22T12:41:33.335Z,90777.63
2022-11-22T12:44:04.112Z,90787.84
2022-11-22T12:46:40.059Z,90774.47
2022-11-22T12:49:32.280Z,90790.94
2022-11-22T12:52:05.066Z,90793.22
2022-11-22T12:54:42.355Z,90788.00
2022-11-22T12:57:23.108Z,90768.03
2022-11-22T13:00:07.112Z,90757.56
2022-11-22T13:02:46.109Z,90754.94
2022-11-22T13:05:19.031Z,90748.22
2022-11-22T13:07:59.234Z,90749.69
2022-11-22T13:10:38.998Z,90754.94
2022-11-22T13:13:17.267Z,90763.94
2022-11-22T13:15:45.689Z,90775.97
2022-11-22T13:18:16.125Z,90780.47
2022-11-22T13:20:55.457Z,90781.25
2022-11-22T13:23:28.487Z,90777.16
2022-11-22T13:26:20.164Z,90794.00
2022-11-22T13:28:48.431Z,90797.75
2022-11-22T13:31:18.917Z,90779.78
2022-11-22T13:34:00.405Z,90761.03
2022-11-22T13:36:30.027Z,90760.28
2022-11-22T13:39:00.420Z,90784.22
2022-11-22T13:41:59.732Z,90784.97
2022-11-22T13:44:33.774Z,90744.19
2022-11-22T13:47:00.615Z,90721.38
2022-11-22T13:49:36.825Z,90714.63
2022-11-22T13:52:12.359Z,90724.34
2022-11-22T13:54:42.009Z,90742.69
2022-11-22T13:57:39.500Z,90748.31
2022-11-22T14:00:15.270Z,90764.41
2022-11-22T14:02:46.743Z,90772.97
2022-11-22T14:05:41.693Z,90758.03
2022-11-22T14:08:28.962Z,90770.03
2022-11-22T14:10:55.584Z,90756.56
2022-11-22T14:13:48.214Z,90761.41
2022-11-22T14:16:32.839Z,90749.75
2022-11-22T14:19:23.079Z,90771.44
2022-11-22T14:22:20.651Z,90766.91
2022-11-22T14:24:58.522Z,90778.84
2022-11-22T14:27:43.779Z,90776.50
2022-11-22T14:30:18.653Z,90771.22
2022-11-22T14:32:51.446Z,90775.41
2022-11-22T14:35:29.870Z,90764.53
2022-11-22T14:37:59.766Z,90764.50
2022-11-22T14:40:48.066Z,90769.25
2022-11-22T14:43:24.921Z,90771.13
2022-11-22T14:45:55.327Z,90770.38
2022-11-22T14:48:46.657Z,90780.41
2022-11-22T14:51:32.725Z,90763.50
2022-11-22T14:54:14.595Z,90776.16
2022-11-22T14:56:43.709Z,90754.47
2022-11-22T14:59:35.903Z,90750.72
2022-11-22T15:02:36.470Z,90729.16
2022-11-22T15:09:12.944Z,90732.94
2022-11-22T15:09:13.291Z,90743.34
2022-11-22T15:11:19.092Z,90759.00
2022-11-22T15:14:13.022Z,90757.44
2022-11-22T15:59:43.156Z,90721.59
2022-11-22T16:02:21.406Z,90736.22
2022-11-22T16:06:10.196Z,90734.66
2022-11-22T16:07:52.781Z,90752.50
2022-11-22T16:10:23.596Z,90744.69
2022-11-22T16:12:52.246Z,90743.03
2022-11-22T16:15:21.943Z,90739.97
2022-11-22T16:17:56.470Z,90759.81
2022-11-22T16:20:31.952Z,90765.75
2022-11-22T16:23:11.954Z,90777.94
2022-11-22T16:25:42.947Z,90779.50
2022-11-22T16:28:32.698Z,90780.00
2022-11-22T16:31:15.513Z,90791.97
2022-11-22T16:33:42.268Z,90799.81
2022-11-22T16:36:12.186Z,90799.56
2022-11-22T16:38:38.916Z,90782.97
2022-11-22T16:41:10.225Z,90788.63
2022-11-22T16:43:36.875Z,90773.88
2022-11-22T16:46:03.722Z,90773.31
2022-11-22T16:48:32.659Z,90774.47
2022-11-22T16:51:11.487Z,90778.94
2022-11-22T16:53:49.425Z,90768.50
2022-11-22T16:56:21.715Z,90767.00
2022-11-22T16:58:49.558Z,90755.88
2022-11-22T17:01:20.115Z,90770.50
2022-11-22T17:03:48.491Z,90767.13
2022-11-22T17:06:24.421Z,90770.03
2022-11-22T17:08:53.235Z,90758.31
2022-11-22T17:11:22.427Z,90762.84
2022-11-22T17:13:49.358Z,90763.56
2022-11-22T17:16:19.165Z,90758.84
2022-11-22T17:18:47.826Z,90751.72
2022-11-22T17:21:24.840Z,90737.81
2022-11-22T17:23:53.032Z,90750.88
2022-11-22T17:26:19.755Z,90760.28
2022-11-22T17:28:46.414Z,90765.66
2022-11-22T17:31:14.998Z,90746.75
2022-11-22T17:33:41.742Z,90745.25
2022-11-22T17:36:27.594Z,90750.44
2022-11-22T17:38:54.314Z,90741.53
2022-11-22T17:41:21.862Z,90733.41
2022-11-22T17:43:48.567Z,90733.34
2022-11-22T17:46:15.288Z,90734.88
2022-11-22T17:48:41.966Z,90732.91
2022-11-22T17:51:10.389Z,90722.47
2022-11-22T17:53:37.367Z,90716.88
2022-11-22T17:56:11.931Z,90719.41
2022-11-22T17:58:40.016Z,90710.97
2022-11-22T18:01:12.540Z,90692.94
2022-11-22T18:03:40.863Z,90704.78
2022-11-22T18:06:08.934Z,90704.84
2022-11-22T18:08:36.312Z,90697.00
2022-11-22T18:11:04.330Z,90694.38
2022-11-22T18:13:33.888Z,90662.16
2022-11-22T18:16:03.675Z,90676.34
2022-11-22T18:18:55.561Z,90680.16
2022-11-22T18:21:17.897Z,90659.34
2022-11-22T18:23:45.348Z,90656.69
2022-11-22T18:31:54.310Z,90640.19
2022-11-22T18:34:24.811Z,90628.59
2022-11-22T18:37:07.535Z,90630.47
2022-11-22T18:39:38.645Z,90641.16
2022-11-22T18:42:07.668Z,90637.84
2022-11-22T18:44:34.674Z,90621.25
2022-11-22T18:47:01.740Z,90639.03
2022-11-22T18:49:28.508Z,90622.97
2022-11-22T18:51:55.777Z,90629.09
2022-11-22T18:54:23.251Z,90651.28
2022-11-22T18:56:51.116Z,90644.97
2022-11-22T18:59:17.832Z,90661.13
2022-11-22T19:01:44.725Z,90657.56
2022-11-22T19:04:15.441Z,90664.19
2022-11-22T19:06:43.294Z,90665.88
2022-11-22T19:09:10.532Z,90654.75
2022-11-22T19:11:37.347Z,90643.50
2022-11-22T19:14:04.423Z,90628.25
2022-11-22T19:16:31.666Z,90656.00
2022-11-22T19:18:59.428Z,90653.28
2022-11-22T19:21:28.174Z,90646.56
2022-11-22T19:23:56.507Z,90641.28
2022-11-22T19:26:25.843Z,90642.53
2022-11-22T19:28:57.624Z,90637.72
2022-11-22T19:31:28.964Z,90614.50
2022-11-22T19:33:56.137Z,90632.34
2022-11-22T19:36:32.146Z,90592.53
2022-11-22T19:38:59.868Z,90622.44
2022-11-22T19:41:26.865Z,90602.47
2022-11-22T19:43:53.614Z,90616.03
2022-11-22T19:46:20.319Z,90595.50
2022-11-22T19:48:54.319Z,90592.00
2022-11-22T19:51:22.099Z,90582.28
2022-11-22T19:53:49.061Z,90571.66
2022-11-22T19:56:18.107Z,90586.03
2022-11-22T19:58:50.587Z,90582.94
2022-11-22T20:01:17.868Z,90576.97
2022-11-22T20:03:45.264Z,90574.47
2022-11-22T20:06:14.099Z,90578.78
2022-11-22T20:08:41.218Z,90584.59
2022-11-22T20:11:10.836Z,90592.03
2022-11-22T20:13:46.259Z,90581.16
2022-11-22T20:16:24.840Z,90566.66
2022-11-22T20:18:55.352Z,90553.91
2022-11-22T20:21:23.038Z,90530.63
2022-11-22T20:23:50.879Z,90551.28
2022-11-22T20:26:18.020Z,90546.56
2022-11-22T20:28:46.100Z,90546.56
2022-11-22T20:31:18.378Z,90540.66
2022-11-22T20:33:47.420Z,90553.97
2022-11-22T20:36:22.540Z,90549.53
2022-11-22T20:38:50.242Z,90553.53
2022-11-22T20:41:19.868Z,90550.63
2022-11-22T20:43:46.923Z,90548.03
2022-11-22T20:46:15.983Z,90526.44
2022-11-22T20:51:27.305Z,90541.38
2022-11-22T20:53:55.565Z,90508.41
2022-11-22T20:56:22.504Z,90535.25
2022-11-22T20:58:49.979Z,90526.38
2022-11-22T21:01:19.099Z,90546.53
2022-11-22T21:03:50.102Z,90540.41
2022-11-22T21:06:18.758Z,90517.97
2022-11-22T21:08:46.028Z,90532.25
2022-11-22T21:11:15.099Z,90516.53
2022-11-22T21:13:42.621Z,90519.31
2022-11-22T21:16:22.828Z,90517.88
2022-11-22T21:18:55.670Z,90507.81
2022-11-22T21:21:25.050Z,90505.13
2022-11-22T21:23:53.970Z,90496.19
2022-11-22T21:26:22.022Z,90493.06
2022-11-22T21:28:49.635Z,90458.31
2022-11-22T21:31:16.756Z,90483.66
2022-11-22T21:33:43.859Z,90480.03
2022-11-22T21:36:10.563Z,90474.81
2022-11-22T21:38:40.556Z,90457.34
2022-11-22T21:41:38.252Z,90423.47
2022-11-22T21:43:57.068Z,90462.16
2022-11-22T21:46:25.051Z,90466.19
2022-11-22T21:48:51.928Z,90469.91
2022-11-22T21:51:18.701Z,90466.47
2022-11-22T21:53:45.557Z,90462.50
2022-11-22T21:56:12.271Z,90461.69
2022-11-22T21:58:38.875Z,90456.69
2022-11-22T22:01:11.006Z,90436.63
2022-11-22T22:03:40.213Z,90448.00
2022-11-22T22:06:07.422Z,90452.06
2022-11-22T22:08:34.157Z,90434.97
2022-11-22T22:11:02.530Z,90438.84
2022-11-22T22:13:30.966Z,90445.56
2022-11-22T22:16:03.849Z,90437.38
2022-11-22T22:18:31.976Z,90432.38
2022-11-22T22:21:00.763Z,90433.00
2022-11-22T22:23:27.901Z,90433.31
2022-11-22T22:26:03.227Z,90425.19
2022-11-22T22:28:31.547Z,90426.34
2022-11-22T22:31:22.746Z,90436.06
2022-11-22T22:33:53.219Z,90420.03
2022-11-22T22:36:20.729Z,90419.31
2022-11-22T22:38:47.891Z,90403.28
2022-11-22T22:41:14.655Z,90380.19
2022-11-22T22:43:43.379Z,90385.28
2022-11-22T22:46:20.295Z,90383.88
2022-11-22T22:48:47.864Z,90377.16
2022-11-22T22:51:20.540Z,90366.38
2022-11-22T22:53:47.773Z,90364.91
2022-11-22T22:56:17.086Z,90361.88
2022-11-22T22:58:44.070Z,90338.41
2022-11-22T23:01:17.645Z,90344.34
2022-11-22T23:03:53.303Z,90328.72
2022-11-22T23:06:20.472Z,90333.50
2022-11-22T23:08:49.284Z,90323.47
2022-11-22T23:11:18.117Z,90320.47
2022-11-22T23:13:44.967Z,90324.59
2022-11-22T23:16:14.050Z,90312.31
2022-11-22T23:18:43.353Z,90320.47
2022-11-22T23:21:15.208Z,90320.09
2022-11-22T23:23:42.052Z,90327.88
2022-11-22T23:26:12.121Z,90326.44
2022-11-22T23:28:39.212Z,90331.69
2022-11-22T23:31:08.782Z,90339.09
2022-11-22T23:33:35.634Z,90324.63
2022-11-22T23:36:07.387Z,90322.00
2022-11-22T23:38:34.372Z,90294.69
2022-11-22T23:41:01.513Z,90303.69
2022-11-22T23:43:29.303Z,90301.09
2022-11-22T23:45:56.452Z,90296.91
2022-11-22T23:48:23.080Z,90286.91
2022-11-22T23:50:49.821Z,90285.47
2022-11-22T23:53:16.562Z,90271.31
2022-11-22T23:55:44.420Z,90271.00
2022-11-22T23:58:11.475Z,90273.56
